createdAt,value
2017-12-23T00:01:17.268Z,7.00
2017-12-23T00:03:44.851Z,7.13
2017-12-23T00:06:12.431Z,7.63
2017-12-23T00:08:40.117Z,7.57
2017-12-23T00:11:07.736Z,7.03
2017-12-23T00:13:35.395Z,7.00
2017-12-23T00:16:03.063Z,7.20
2017-12-23T00:18:30.680Z,7.03
2017-12-23T00:20:58.295Z,6.53
2017-12-23T00:23:25.916Z,6.70
2017-12-23T00:25:53.499Z,5.43
2017-12-23T00:28:21.083Z,7.03
2017-12-23T00:30:48.668Z,7.90
2017-12-23T00:33:16.247Z,7.13
2017-12-23T00:35:43.833Z,7.33
2017-12-23T00:38:11.495Z,6.70
2017-12-23T00:40:39.159Z,5.50
2017-12-23T00:43:06.741Z,8.70
2017-12-23T00:45:34.995Z,7.70
2017-12-23T00:48:02.589Z,5.63
2017-12-23T00:50:30.172Z,8.50
2017-12-23T00:52:57.751Z,7.37
2017-12-23T00:55:25.416Z,7.47
2017-12-23T00:57:53.474Z,8.20
2017-12-23T01:00:21.200Z,8.53
2017-12-23T01:02:48.783Z,7.77
2017-12-23T01:05:16.367Z,7.87
2017-12-23T01:07:44.011Z,8.10
2017-12-23T01:10:11.640Z,8.77
2017-12-23T01:12:39.302Z,7.63
2017-12-23T01:15:06.887Z,6.40
2017-12-23T01:17:34.564Z,9.23
2017-12-23T01:20:02.151Z,7.13
2017-12-23T01:22:29.770Z,7.67
2017-12-23T01:24:57.343Z,6.60
2017-12-23T01:27:24.924Z,7.27
2017-12-23T01:29:52.503Z,7.80
2017-12-23T01:32:20.124Z,7.80
2017-12-23T01:34:47.704Z,6.97
2017-12-23T01:37:15.285Z,8.30
2017-12-23T01:39:42.868Z,8.40
2017-12-23T01:42:10.444Z,7.43
2017-12-23T01:44:38.119Z,8.00
2017-12-23T01:47:05.710Z,7.43
2017-12-23T01:49:33.359Z,7.40
2017-12-23T01:52:00.999Z,6.77
2017-12-23T01:54:28.622Z,8.40
2017-12-23T01:56:56.200Z,6.73
2017-12-23T01:59:23.774Z,7.37
2017-12-23T02:01:51.356Z,8.27
2017-12-23T02:04:19.016Z,7.17
2017-12-23T02:06:46.628Z,7.03
2017-12-23T02:09:14.207Z,6.23
2017-12-23T02:11:42.931Z,7.60
2017-12-23T02:14:10.591Z,7.17
2017-12-23T02:16:39.826Z,6.50
2017-12-23T02:19:07.399Z,6.87
2017-12-23T02:21:35.043Z,6.97
2017-12-23T02:24:02.623Z,6.40
2017-12-23T02:26:30.318Z,6.90
2017-12-23T02:28:57.894Z,6.00
2017-12-23T02:31:25.468Z,7.33
2017-12-23T02:33:53.045Z,6.13
2017-12-23T02:36:20.622Z,6.27
2017-12-23T02:38:48.201Z,7.17
2017-12-23T02:41:15.811Z,6.40
2017-12-23T02:43:43.498Z,5.63
2017-12-23T02:46:11.074Z,6.13
2017-12-23T02:48:38.651Z,5.70
2017-12-23T02:51:06.232Z,5.90
2017-12-23T02:53:33.857Z,6.67
2017-12-23T02:56:01.436Z,6.43
2017-12-23T02:58:29.036Z,6.33
2017-12-23T03:00:56.613Z,8.10
2017-12-23T03:03:24.183Z,7.03
2017-12-23T03:05:51.803Z,5.83
2017-12-23T03:08:19.379Z,6.67
2017-12-23T03:10:46.958Z,6.77
2017-12-23T03:13:14.537Z,7.10
2017-12-23T03:15:42.110Z,7.23
2017-12-23T03:18:09.689Z,6.73
2017-12-23T03:20:37.300Z,7.57
2017-12-23T03:23:04.901Z,7.17
2017-12-23T03:25:32.643Z,7.87
2017-12-23T03:28:00.231Z,7.60
2017-12-23T03:30:27.863Z,9.47
2017-12-23T03:32:55.569Z,8.13
2017-12-23T03:35:23.158Z,8.60
2017-12-23T03:37:50.856Z,9.17
2017-12-23T03:40:18.516Z,9.20
2017-12-23T03:42:46.128Z,10.20
2017-12-23T03:45:13.746Z,9.00
2017-12-23T03:47:41.400Z,9.57
2017-12-23T03:50:09.063Z,9.30
2017-12-23T03:52:36.671Z,9.13
2017-12-23T03:55:04.291Z,10.23
2017-12-23T03:57:31.987Z,9.77
2017-12-23T03:59:59.598Z,11.00
2017-12-23T04:02:27.218Z,11.10
2017-12-23T04:04:54.795Z,12.40
2017-12-23T04:07:22.502Z,11.50
2017-12-23T04:09:50.089Z,12.37
2017-12-23T04:12:17.707Z,10.70
2017-12-23T04:14:46.479Z,10.83
2017-12-23T04:17:14.099Z,13.50
2017-12-23T04:19:41.679Z,12.33
2017-12-23T04:22:09.254Z,11.07
2017-12-23T04:24:36.838Z,13.03
2017-12-23T04:27:04.423Z,11.17
2017-12-23T04:29:32.001Z,12.23
2017-12-23T04:31:59.686Z,11.40
2017-12-23T04:34:27.264Z,11.63
2017-12-23T04:36:54.906Z,12.20
2017-12-23T04:39:22.514Z,12.40
2017-12-23T04:41:50.139Z,13.80
2017-12-23T04:44:17.723Z,14.37
2017-12-23T04:46:45.303Z,15.43
2017-12-23T04:49:12.881Z,11.87
2017-12-23T04:51:40.466Z,13.13
2017-12-23T04:54:08.042Z,12.20
2017-12-23T04:56:35.626Z,12.10
2017-12-23T04:59:04.176Z,12.73
2017-12-23T05:01:31.754Z,12.37
2017-12-23T05:03:59.332Z,10.97
2017-12-23T05:06:26.958Z,11.80
2017-12-23T05:08:54.532Z,11.90
2017-12-23T05:11:22.199Z,15.10
2017-12-23T05:13:49.774Z,12.70
2017-12-23T05:16:17.346Z,11.73
2017-12-23T05:18:44.935Z,10.73
2017-12-23T05:21:12.511Z,10.40
2017-12-23T05:23:40.090Z,12.37
2017-12-23T05:26:07.666Z,10.40
2017-12-23T05:28:35.247Z,10.30
2017-12-23T05:31:02.916Z,10.33
2017-12-23T05:33:30.494Z,10.23
2017-12-23T05:35:58.078Z,10.00
2017-12-23T05:38:25.653Z,10.37
2017-12-23T05:40:53.228Z,9.80
2017-12-23T05:43:20.846Z,8.90
2017-12-23T05:45:48.449Z,10.33
2017-12-23T05:48:16.067Z,10.60
2017-12-23T05:50:43.639Z,9.27
2017-12-23T05:53:11.256Z,10.40
2017-12-23T05:55:38.887Z,10.90
2017-12-23T05:58:06.470Z,10.00
2017-12-23T06:00:34.204Z,11.53
2017-12-23T06:03:02.698Z,11.67
2017-12-23T06:05:30.271Z,11.03
2017-12-23T06:07:57.847Z,9.80
2017-12-23T06:10:25.426Z,11.10
2017-12-23T06:12:53.046Z,11.10
2017-12-23T06:15:20.750Z,9.73
2017-12-23T06:17:48.415Z,12.57
2017-12-23T06:20:16.071Z,12.17
2017-12-23T06:22:43.656Z,12.00
2017-12-23T06:25:11.272Z,11.70
2017-12-23T06:27:38.860Z,11.53
2017-12-23T06:30:06.480Z,12.27
2017-12-23T06:32:34.082Z,14.40
2017-12-23T06:35:01.698Z,12.60
2017-12-23T06:37:29.406Z,13.63
2017-12-23T06:39:56.990Z,14.97
2017-12-23T06:42:24.605Z,14.20
2017-12-23T06:44:52.307Z,16.10
2017-12-23T06:47:19.960Z,13.43
2017-12-23T06:49:47.550Z,15.57
2017-12-23T06:52:15.280Z,14.53
2017-12-23T06:54:42.858Z,16.43
2017-12-23T06:57:10.475Z,15.30
2017-12-23T06:59:38.096Z,15.57
2017-12-23T07:02:05.682Z,18.27
2017-12-23T07:04:33.259Z,15.67
2017-12-23T07:07:00.835Z,16.27
2017-12-23T07:09:28.616Z,18.10
2017-12-23T07:11:56.195Z,15.33
2017-12-23T07:14:23.840Z,16.23
2017-12-23T07:16:51.419Z,16.80
2017-12-23T07:19:19.040Z,15.47
2017-12-23T07:21:46.633Z,16.57
2017-12-23T07:24:15.211Z,15.57
2017-12-23T07:26:42.794Z,16.67
2017-12-23T07:29:10.417Z,13.93
2017-12-23T07:31:38.034Z,15.40
2017-12-23T07:34:05.620Z,16.57
2017-12-23T07:36:33.244Z,15.57
2017-12-23T07:39:01.702Z,15.33
2017-12-23T07:41:29.400Z,16.20
2017-12-23T07:43:56.983Z,15.77
2017-12-23T07:46:24.605Z,14.93
2017-12-23T07:48:52.183Z,18.10
2017-12-23T07:51:19.759Z,15.60
2017-12-23T07:53:47.340Z,15.47
2017-12-23T07:56:14.924Z,16.13
2017-12-23T07:58:42.506Z,16.63
2017-12-23T08:01:10.120Z,17.37
2017-12-23T08:03:37.745Z,14.83
2017-12-23T08:06:05.415Z,14.63
2017-12-23T08:08:33.042Z,16.17
2017-12-23T08:11:00.707Z,16.17
2017-12-23T08:13:28.335Z,15.80
2017-12-23T08:15:55.930Z,15.57
2017-12-23T08:18:23.515Z,14.00
2017-12-23T08:20:51.142Z,13.40
2017-12-23T08:23:18.724Z,15.17
2017-12-23T08:25:46.308Z,15.17
2017-12-23T08:28:13.886Z,14.43
2017-12-23T08:30:41.514Z,13.20
2017-12-23T08:33:09.095Z,14.60
2017-12-23T08:35:36.682Z,14.67
2017-12-23T08:38:04.270Z,14.00
2017-12-23T08:40:31.852Z,14.40
2017-12-23T08:42:59.431Z,13.83
2017-12-23T08:45:27.019Z,14.43
2017-12-23T08:47:54.599Z,14.60
2017-12-23T08:50:22.247Z,14.03
2017-12-23T08:52:49.859Z,15.73
2017-12-23T08:55:17.444Z,14.57
2017-12-23T08:57:45.024Z,14.83
2017-12-23T09:00:12.689Z,17.77
2017-12-23T09:02:40.273Z,15.87
2017-12-23T09:05:07.951Z,15.37
2017-12-23T09:07:35.538Z,15.17
2017-12-23T09:10:03.124Z,17.03
2017-12-23T09:12:30.722Z,16.73
2017-12-23T09:14:58.328Z,15.30
2017-12-23T09:17:25.916Z,13.50
2017-12-23T09:19:53.504Z,16.40
2017-12-23T09:22:21.220Z,16.10
2017-12-23T09:24:49.475Z,14.03
2017-12-23T09:27:17.059Z,14.67
2017-12-23T09:29:44.696Z,17.10
2017-12-23T09:32:12.368Z,15.40
2017-12-23T09:34:39.955Z,15.77
2017-12-23T09:37:07.621Z,14.37
2017-12-23T09:39:35.255Z,15.13
2017-12-23T09:42:02.839Z,15.00
2017-12-23T09:44:30.436Z,15.80
2017-12-23T09:46:58.055Z,14.70
2017-12-23T09:49:25.645Z,13.90
2017-12-23T09:51:53.308Z,15.60
2017-12-23T09:54:21.481Z,15.80
2017-12-23T09:56:49.112Z,15.50
2017-12-23T09:59:16.724Z,13.87
2017-12-23T10:01:44.303Z,15.27
2017-12-23T10:04:11.916Z,14.60
2017-12-23T10:06:39.515Z,13.77
2017-12-23T10:09:07.134Z,16.73
2017-12-23T10:11:34.748Z,11.77
2017-12-23T10:14:02.379Z,15.00
2017-12-23T10:16:29.963Z,13.83
2017-12-23T10:18:57.582Z,14.40
2017-12-23T10:21:25.263Z,14.80
2017-12-23T10:23:53.009Z,13.17
2017-12-23T10:26:20.591Z,12.80
2017-12-23T10:28:48.296Z,13.27
2017-12-23T10:31:15.889Z,12.60
2017-12-23T10:33:43.535Z,13.67
2017-12-23T10:36:11.119Z,14.00
2017-12-23T10:38:38.755Z,13.27
2017-12-23T10:41:06.466Z,12.40
2017-12-23T10:43:34.055Z,14.60
2017-12-23T10:46:01.678Z,12.93
2017-12-23T10:48:29.267Z,13.30
2017-12-23T10:50:56.881Z,13.27
2017-12-23T10:53:24.466Z,12.80
2017-12-23T10:55:52.085Z,13.87
2017-12-23T10:58:19.767Z,12.57
2017-12-23T11:00:47.394Z,12.53
2017-12-23T11:03:14.975Z,10.93
2017-12-23T11:05:42.596Z,11.90
2017-12-23T11:08:10.251Z,10.40
2017-12-23T11:10:37.832Z,10.47
2017-12-23T11:13:05.452Z,9.77
2017-12-23T11:15:33.088Z,10.07
2017-12-23T11:18:00.644Z,9.77
2017-12-23T11:20:28.219Z,9.70
2017-12-23T11:22:55.797Z,8.17
2017-12-23T11:25:23.376Z,6.20
2017-12-23T11:27:50.955Z,8.97
2017-12-23T11:30:18.533Z,8.13
2017-12-23T11:32:46.112Z,7.70
2017-12-23T11:35:13.691Z,7.33
2017-12-23T11:37:41.273Z,8.10
2017-12-23T11:40:08.843Z,6.63
2017-12-23T11:42:36.460Z,5.30
2017-12-23T11:45:04.041Z,5.47
2017-12-23T11:47:31.623Z,6.40
2017-12-23T11:49:59.205Z,5.47
2017-12-23T11:52:26.784Z,5.10
2017-12-23T11:54:54.360Z,5.50
2017-12-23T11:57:21.939Z,5.50
2017-12-23T11:59:49.515Z,5.20
2017-12-23T12:02:17.086Z,4.77
2017-12-23T12:04:44.661Z,5.00
2017-12-23T12:07:12.273Z,4.10
2017-12-23T12:09:40.663Z,4.97
2017-12-23T12:12:08.278Z,4.30
2017-12-23T12:14:35.855Z,4.20
2017-12-23T12:17:03.445Z,4.70
2017-12-23T12:19:31.015Z,4.50
2017-12-23T12:21:58.628Z,4.10
2017-12-23T12:24:26.244Z,4.50
2017-12-23T12:26:53.816Z,4.13
2017-12-23T12:29:21.388Z,4.43
2017-12-23T12:31:48.963Z,5.20
2017-12-23T12:34:16.536Z,5.30
2017-12-23T12:36:44.112Z,4.03
2017-12-23T12:39:11.695Z,3.90
2017-12-23T12:41:39.276Z,4.73
2017-12-23T12:44:06.852Z,3.53
2017-12-23T12:46:34.472Z,4.10
2017-12-23T12:49:02.141Z,3.80
2017-12-23T12:51:29.715Z,4.10
2017-12-23T12:53:57.298Z,3.40
2017-12-23T12:56:24.930Z,3.57
2017-12-23T12:58:52.508Z,3.53
2017-12-23T13:01:20.083Z,3.97
2017-12-23T13:03:47.656Z,3.70
2017-12-23T13:06:15.232Z,3.80
2017-12-23T13:08:42.804Z,3.50
2017-12-23T13:11:10.381Z,3.23
2017-12-23T13:13:37.954Z,4.17
2017-12-23T13:16:05.527Z,3.30
2017-12-23T13:18:33.100Z,4.23
2017-12-23T13:21:00.672Z,3.30
2017-12-23T13:23:28.281Z,3.57
2017-12-23T13:25:55.860Z,4.60
2017-12-23T13:28:23.528Z,4.27
2017-12-23T13:30:51.106Z,4.30
2017-12-23T13:33:18.744Z,3.63
2017-12-23T13:35:46.315Z,3.83
2017-12-23T13:38:13.880Z,3.70
2017-12-23T13:40:41.456Z,4.27
2017-12-23T13:43:09.037Z,3.40
2017-12-23T13:45:36.612Z,4.80
2017-12-23T13:48:04.186Z,4.23
2017-12-23T13:50:31.763Z,4.40
2017-12-23T13:52:59.331Z,3.80
2017-12-23T13:55:26.996Z,4.60
2017-12-23T13:57:54.656Z,4.20
2017-12-23T14:00:22.226Z,4.90
2017-12-23T14:02:49.883Z,3.53
2017-12-23T14:05:17.540Z,4.70
2017-12-23T14:07:45.219Z,4.70
2017-12-23T14:10:13.776Z,3.77
2017-12-23T14:12:41.351Z,4.23
2017-12-23T14:15:08.976Z,5.97
2017-12-23T14:17:36.551Z,5.60
2017-12-23T14:20:04.240Z,4.77
2017-12-23T14:22:31.899Z,5.50
2017-12-23T14:24:59.489Z,5.90
2017-12-23T14:27:27.111Z,5.23
2017-12-23T14:29:54.791Z,6.00
2017-12-23T14:32:22.371Z,5.90
2017-12-23T14:34:49.943Z,6.33
2017-12-23T14:37:17.516Z,6.87
2017-12-23T14:39:45.088Z,5.60
2017-12-23T14:42:12.659Z,6.90
2017-12-23T14:44:40.236Z,7.23
2017-12-23T14:47:07.820Z,7.20
2017-12-23T14:49:35.426Z,7.53
2017-12-23T14:52:03.025Z,7.40
2017-12-23T14:54:30.604Z,8.10
2017-12-23T14:56:58.262Z,7.27
2017-12-23T14:59:25.884Z,8.23
2017-12-23T15:01:53.467Z,8.10
2017-12-23T15:04:21.043Z,8.60
2017-12-23T15:06:49.295Z,10.40
2017-12-23T15:09:16.886Z,8.20
2017-12-23T15:11:44.495Z,9.73
2017-12-23T15:14:12.066Z,11.70
2017-12-23T15:16:39.650Z,11.37
2017-12-23T15:19:07.231Z,10.43
2017-12-23T15:21:34.927Z,9.20
2017-12-23T15:24:02.504Z,9.47
2017-12-23T15:26:30.084Z,10.33
2017-12-23T15:28:57.665Z,10.60
2017-12-23T15:31:25.252Z,11.23
2017-12-23T15:33:52.828Z,11.90
2017-12-23T15:36:21.315Z,11.00
2017-12-23T15:38:48.905Z,12.17
2017-12-23T15:41:16.486Z,11.83
2017-12-23T15:43:44.063Z,14.00
2017-12-23T15:46:11.643Z,14.63
2017-12-23T15:48:39.219Z,13.73
2017-12-23T15:51:06.796Z,12.10
2017-12-23T15:53:34.376Z,14.50
2017-12-23T15:56:01.987Z,17.00
2017-12-23T15:58:29.571Z,16.70
2017-12-23T16:00:57.151Z,16.40
2017-12-23T16:03:24.728Z,15.07
2017-12-23T16:05:52.298Z,16.00
2017-12-23T16:08:19.879Z,18.53
2017-12-23T16:10:47.451Z,16.20
2017-12-23T16:13:15.071Z,18.53
2017-12-23T16:15:42.651Z,17.10
2017-12-23T16:18:10.272Z,15.60
2017-12-23T16:20:37.888Z,18.30
2017-12-23T16:23:05.463Z,19.53
2017-12-23T16:25:33.040Z,18.97
2017-12-23T16:28:00.661Z,19.60
2017-12-23T16:30:28.292Z,20.50
2017-12-23T16:32:55.875Z,19.17
2017-12-23T16:35:23.515Z,21.93
2017-12-23T16:37:51.148Z,22.37
2017-12-23T16:40:18.810Z,24.57
2017-12-23T16:42:46.440Z,23.83
2017-12-23T16:45:14.120Z,23.57
2017-12-23T16:47:42.888Z,22.17
2017-12-23T16:50:10.467Z,26.20
2017-12-23T16:52:38.048Z,22.70
2017-12-23T16:55:05.659Z,26.53
2017-12-23T16:57:33.246Z,26.93
2017-12-23T17:00:00.832Z,28.33
2017-12-23T17:02:28.416Z,24.90
2017-12-23T17:04:56.040Z,26.97
2017-12-23T17:07:23.614Z,26.47
2017-12-23T17:09:51.195Z,27.60
2017-12-23T17:12:18.772Z,26.90
2017-12-23T17:14:46.954Z,27.77
2017-12-23T17:17:14.643Z,27.93
2017-12-23T17:19:42.302Z,26.87
2017-12-23T17:22:09.931Z,27.50
2017-12-23T17:24:37.519Z,29.77
2017-12-23T17:27:05.103Z,28.13
2017-12-23T17:29:44.273Z,24.50
2017-12-23T17:32:11.867Z,30.30
2017-12-23T17:34:39.461Z,27.70
2017-12-23T17:37:07.058Z,29.00
2017-12-23T17:39:34.641Z,30.27
2017-12-23T17:42:02.223Z,27.80
2017-12-23T17:44:29.813Z,28.60
2017-12-23T17:46:57.387Z,30.83
2017-12-23T17:49:24.967Z,29.30
2017-12-23T17:51:52.548Z,31.00
2017-12-23T17:54:20.138Z,31.00
2017-12-23T17:56:47.714Z,29.20
2017-12-23T17:59:15.293Z,29.77
2017-12-23T18:01:42.871Z,30.57
2017-12-23T18:04:10.449Z,29.13
2017-12-23T18:06:38.048Z,29.07
2017-12-23T18:09:06.240Z,27.73
2017-12-23T18:11:33.827Z,26.80
2017-12-23T18:14:01.451Z,29.03
2017-12-23T18:16:29.139Z,27.60
2017-12-23T18:18:56.720Z,26.30
2017-12-23T18:21:24.404Z,27.83
2017-12-23T18:23:52.095Z,25.40
2017-12-23T18:26:19.754Z,23.80
2017-12-23T18:28:47.336Z,23.20
2017-12-23T18:31:14.975Z,22.00
2017-12-23T18:33:42.639Z,21.87
2017-12-23T18:36:10.304Z,20.80
2017-12-23T18:38:37.968Z,23.30
2017-12-23T18:41:05.559Z,19.73
2017-12-23T18:43:33.227Z,24.07
2017-12-23T18:46:00.813Z,24.27
2017-12-23T18:48:28.418Z,23.43
2017-12-23T18:50:56.012Z,23.73
2017-12-23T18:53:23.644Z,22.00
2017-12-23T18:55:51.232Z,22.53
2017-12-23T18:58:18.849Z,17.80
2017-12-23T19:00:46.528Z,23.70
2017-12-23T19:03:14.196Z,24.37
2017-12-23T19:05:41.851Z,22.80
2017-12-23T19:08:10.184Z,23.30
2017-12-23T19:10:37.764Z,23.73
2017-12-23T19:13:05.455Z,24.10
2017-12-23T19:15:33.119Z,24.23
2017-12-23T19:18:00.704Z,24.63
2017-12-23T19:20:29.056Z,26.00
2017-12-23T19:22:56.756Z,23.87
2017-12-23T19:25:24.384Z,24.00
2017-12-23T19:27:52.092Z,23.87
2017-12-23T19:30:19.673Z,24.93
2017-12-23T19:32:47.256Z,23.70
2017-12-23T19:35:14.932Z,23.20
2017-12-23T19:37:42.596Z,21.67
2017-12-23T19:40:10.281Z,20.50
2017-12-23T19:42:38.032Z,19.60
2017-12-23T19:45:05.692Z,19.57
2017-12-23T19:47:33.272Z,18.70
2017-12-23T19:50:00.918Z,22.40
2017-12-23T19:52:28.504Z,20.37
2017-12-23T19:54:56.140Z,19.33
2017-12-23T19:57:23.798Z,18.57
2017-12-23T19:59:51.464Z,19.70
2017-12-23T20:02:19.128Z,18.00
2017-12-23T20:04:46.825Z,19.53
2017-12-23T20:07:14.405Z,19.37
2017-12-23T20:09:41.988Z,18.93
2017-12-23T20:12:09.680Z,19.10
2017-12-23T20:14:37.310Z,20.23
2017-12-23T20:17:04.929Z,16.47
2017-12-23T20:19:32.528Z,19.37
2017-12-23T20:22:01.239Z,17.40
2017-12-23T20:24:29.063Z,17.97
2017-12-23T20:26:56.836Z,15.77
2017-12-23T20:32:11.776Z,16.20
2017-12-23T20:34:46.619Z,17.70
2017-12-23T20:37:18.019Z,17.60
2017-12-23T20:39:45.876Z,16.77
2017-12-23T20:42:13.584Z,16.00
2017-12-23T20:44:41.248Z,17.80
2017-12-23T20:47:08.909Z,16.83
2017-12-23T20:49:36.492Z,17.40
2017-12-23T20:52:04.113Z,16.70
2017-12-23T20:54:31.735Z,18.10
2017-12-23T20:56:59.315Z,19.70
2017-12-23T20:59:26.915Z,19.73
2017-12-23T21:01:54.612Z,16.80
2017-12-23T21:04:22.248Z,19.23
2017-12-23T21:06:49.832Z,19.63
2017-12-23T21:09:20.948Z,18.83
2017-12-23T21:11:53.475Z,19.10
2017-12-23T21:14:21.168Z,19.23
2017-12-23T21:16:48.885Z,17.00
2017-12-23T21:19:18.045Z,17.73
2017-12-23T21:21:46.641Z,17.70
2017-12-23T21:24:14.944Z,18.90
2017-12-23T21:26:42.625Z,18.10
2017-12-23T21:29:12.587Z,17.50
2017-12-23T21:31:42.168Z,19.40
2017-12-23T21:34:10.899Z,17.57
2017-12-23T21:36:40.480Z,18.93
2017-12-23T21:39:09.329Z,19.10
2017-12-23T21:41:36.918Z,12.73
2017-12-23T21:44:04.795Z,19.10
2017-12-23T21:46:33.355Z,18.80
2017-12-23T21:49:01.856Z,17.90
2017-12-23T21:51:30.372Z,17.73
2017-12-23T21:53:59.028Z,19.67
2017-12-23T21:56:27.220Z,18.90
2017-12-23T21:58:56.665Z,17.70
2017-12-23T22:01:27.476Z,18.40
2017-12-23T22:03:55.191Z,18.90
2017-12-23T22:06:22.833Z,17.10
2017-12-23T22:08:51.356Z,18.10
2017-12-23T22:11:21.719Z,18.97
2017-12-23T22:13:51.737Z,17.50
2017-12-23T22:16:20.082Z,17.30
2017-12-23T22:18:47.692Z,16.67
2017-12-23T22:21:17.214Z,18.83
2017-12-23T22:23:45.292Z,17.80
2017-12-23T22:26:13.866Z,16.57
2017-12-23T22:28:41.540Z,16.33
2017-12-23T22:31:10.145Z,17.23
2017-12-23T22:33:38.692Z,16.90
2017-12-23T22:36:06.326Z,17.93
2017-12-23T22:38:34.991Z,19.40
2017-12-23T22:41:03.434Z,19.07
2017-12-23T22:43:31.019Z,16.97
2017-12-23T22:46:00.028Z,17.23
2017-12-23T22:48:27.606Z,17.70
2017-12-23T22:50:56.087Z,19.37
2017-12-23T22:53:23.756Z,19.00
2017-12-23T22:55:51.423Z,20.97
2017-12-23T22:58:20.015Z,19.03
2017-12-23T23:00:49.711Z,19.30
2017-12-23T23:03:18.728Z,19.73
2017-12-23T23:05:46.418Z,18.57
2017-12-23T23:08:15.303Z,19.53
2017-12-23T23:10:43.434Z,18.73
2017-12-23T23:13:13.979Z,19.20
2017-12-23T23:15:43.252Z,18.97
2017-12-23T23:18:11.026Z,20.30
2017-12-23T23:20:39.787Z,22.63
2017-12-23T23:23:07.406Z,19.70
2017-12-23T23:25:34.978Z,20.93
2017-12-23T23:28:02.708Z,21.10
2017-12-23T23:30:30.286Z,22.60
2017-12-23T23:32:57.888Z,20.60
2017-12-23T23:35:25.466Z,20.87
2017-12-23T23:37:53.047Z,20.80
2017-12-23T23:40:20.671Z,20.57
2017-12-23T23:42:48.283Z,20.47
2017-12-23T23:45:16.075Z,22.13
2017-12-23T23:47:43.659Z,22.30
2017-12-23T23:50:11.236Z,22.17
2017-12-23T23:52:38.811Z,23.77
2017-12-23T23:55:06.487Z,21.13
2017-12-23T23:57:34.150Z,22.73
